createdAt,value
2024-02-08T00:01:47.185Z,20.90
2024-02-08T00:04:17.673Z,20.60
2024-02-08T00:06:47.995Z,20.50
2024-02-08T00:09:18.469Z,19.70
2024-02-08T00:11:48.795Z,20.00
2024-02-08T00:14:18.993Z,18.80
2024-02-08T00:16:49.270Z,18.90
2024-02-08T00:19:19.582Z,18.60
2024-02-08T00:21:51.207Z,20.00
2024-02-08T00:24:21.461Z,17.30
2024-02-08T00:26:51.742Z,19.00
2024-02-08T00:29:25.580Z,18.30
2024-02-08T00:31:55.855Z,18.30
2024-02-08T00:34:26.256Z,18.10
2024-02-08T00:36:56.485Z,16.70
2024-02-08T00:39:26.744Z,18.30
2024-02-08T00:41:58.489Z,16.90
2024-02-08T00:44:29.317Z,16.50
2024-02-08T00:46:59.683Z,15.60
2024-02-08T00:49:30.049Z,16.30
2024-02-08T00:52:01.391Z,16.10
2024-02-08T00:54:31.656Z,14.90
2024-02-08T00:57:01.891Z,15.00
2024-02-08T00:59:32.151Z,15.10
2024-02-08T01:02:02.655Z,14.70
2024-02-08T01:04:32.923Z,14.80
2024-02-08T01:07:03.223Z,14.70
2024-02-08T01:09:33.590Z,14.70
2024-02-08T01:12:05.747Z,14.90
2024-02-08T01:14:36.040Z,13.80
2024-02-08T01:17:06.940Z,14.00
2024-02-08T01:19:37.494Z,13.90
2024-02-08T01:22:08.019Z,13.50
2024-02-08T01:24:38.227Z,12.40
2024-02-08T01:27:09.359Z,13.30
2024-02-08T01:29:39.579Z,15.70
2024-02-08T01:32:10.071Z,16.10
2024-02-08T01:34:42.173Z,20.90
2024-02-08T01:37:14.190Z,33.10
2024-02-08T01:39:44.744Z,39.60
2024-02-08T01:42:15.616Z,42.40
2024-02-08T01:44:47.736Z,38.60
2024-02-08T01:47:18.292Z,39.10
2024-02-08T01:49:49.082Z,40.40
2024-02-08T01:52:20.352Z,39.30
2024-02-08T01:54:51.061Z,37.40
2024-02-08T01:57:21.373Z,35.80
2024-02-08T01:59:54.433Z,35.20
2024-02-08T02:02:25.106Z,36.10
2024-02-08T02:04:55.444Z,34.70
2024-02-08T02:07:26.610Z,34.30
2024-02-08T02:09:57.061Z,33.70
2024-02-08T02:12:31.130Z,33.20
2024-02-08T02:15:05.085Z,32.10
2024-02-08T02:17:35.368Z,32.10
2024-02-08T02:20:08.260Z,30.30
2024-02-08T02:22:43.442Z,30.40
2024-02-08T02:25:14.886Z,28.60
2024-02-08T02:27:45.222Z,28.80
2024-02-08T02:30:17.811Z,28.90
2024-02-08T02:32:50.799Z,27.80
2024-02-08T02:35:23.340Z,27.30
2024-02-08T02:37:53.594Z,27.10
2024-02-08T02:40:25.160Z,27.40
2024-02-08T02:42:56.099Z,25.30
2024-02-08T02:45:30.236Z,26.00
2024-02-08T02:48:03.067Z,23.80
2024-02-08T02:50:33.616Z,25.10
2024-02-08T02:53:04.001Z,23.40
2024-02-08T02:55:36.062Z,23.70
2024-02-08T02:58:06.682Z,23.40
2024-02-08T03:00:37.803Z,21.80
2024-02-08T03:03:13.673Z,23.10
2024-02-08T03:05:47.045Z,22.50
2024-02-08T03:08:17.859Z,22.30
2024-02-08T03:10:48.469Z,22.20
2024-02-08T03:13:19.518Z,20.60
2024-02-08T03:15:50.256Z,21.30
2024-02-08T03:18:24.673Z,20.40
2024-02-08T03:20:54.898Z,19.60
2024-02-08T03:23:26.189Z,19.90
2024-02-08T03:25:57.735Z,18.60
2024-02-08T03:28:29.926Z,19.50
2024-02-08T03:31:00.221Z,19.00
2024-02-08T03:33:30.535Z,17.80
2024-02-08T03:36:00.832Z,17.90
2024-02-08T03:38:31.073Z,16.90
2024-02-08T03:41:01.364Z,16.90
2024-02-08T03:43:34.150Z,16.30
2024-02-08T03:46:08.596Z,17.30
2024-02-08T03:48:39.568Z,16.50
2024-02-08T03:51:11.814Z,16.20
2024-02-08T03:53:44.065Z,15.50
2024-02-08T03:56:17.729Z,15.50
2024-02-08T03:58:48.147Z,15.20
2024-02-08T04:01:22.368Z,15.90
2024-02-08T04:03:57.697Z,15.00
2024-02-08T04:06:50.569Z,14.70
2024-02-08T04:09:35.089Z,13.80
2024-02-08T04:12:23.018Z,14.00
2024-02-08T04:15:10.691Z,13.70
2024-02-08T04:17:58.418Z,13.30
2024-02-08T04:20:45.998Z,12.70
2024-02-08T04:23:34.867Z,12.20
2024-02-08T04:26:25.181Z,12.80
2024-02-08T04:29:13.523Z,12.00
2024-02-08T04:32:01.499Z,12.70
2024-02-08T04:34:51.746Z,12.10
2024-02-08T04:37:39.562Z,12.60
2024-02-08T04:40:31.480Z,11.70
2024-02-08T04:43:20.645Z,12.10
2024-02-08T04:46:08.217Z,27.80
2024-02-08T04:48:56.158Z,32.00
2024-02-08T04:51:44.078Z,33.30
2024-02-08T04:54:14.306Z,32.30
2024-02-08T04:56:47.896Z,34.20
2024-02-08T04:59:23.616Z,36.50
2024-02-08T05:01:54.723Z,37.40
2024-02-08T05:04:25.253Z,37.10
2024-02-08T05:06:57.077Z,35.50
2024-02-08T05:09:28.375Z,34.20
2024-02-08T05:12:00.597Z,34.70
2024-02-08T05:14:30.841Z,34.10
2024-02-08T05:17:01.949Z,32.20
2024-02-08T05:19:32.362Z,31.10
2024-02-08T05:22:03.658Z,29.80
2024-02-08T05:24:34.141Z,30.00
2024-02-08T05:27:04.784Z,28.90
2024-02-08T05:29:40.371Z,29.30
2024-02-08T05:32:11.651Z,30.20
2024-02-08T05:34:42.446Z,27.90
2024-02-08T05:37:12.863Z,26.70
2024-02-08T05:39:45.052Z,26.40
2024-02-08T05:42:15.364Z,26.10
2024-02-08T05:44:46.468Z,24.60
2024-02-08T05:47:18.445Z,25.30
2024-02-08T05:49:54.324Z,24.70
2024-02-08T05:52:27.654Z,23.20
2024-02-08T05:54:59.380Z,23.80
2024-02-08T05:57:31.954Z,21.90
2024-02-08T06:00:11.247Z,23.60
2024-02-08T06:02:42.075Z,22.00
2024-02-08T06:05:19.389Z,21.50
2024-02-08T06:07:57.542Z,20.20
2024-02-08T06:10:43.112Z,21.40
2024-02-08T06:13:16.578Z,29.70
2024-02-08T06:15:48.559Z,30.30
2024-02-08T06:18:26.011Z,31.30
2024-02-08T06:21:00.997Z,28.40
2024-02-08T06:23:36.276Z,39.20
2024-02-08T06:26:24.457Z,40.00
2024-02-08T06:28:55.259Z,46.20
2024-02-08T06:31:34.329Z,43.70
2024-02-08T06:34:28.966Z,43.60
2024-02-08T06:37:17.669Z,41.80
2024-02-08T06:39:57.119Z,42.00
2024-02-08T06:43:06.299Z,40.80
2024-02-08T06:45:59.322Z,39.40
2024-02-08T06:48:50.772Z,39.30
2024-02-08T06:51:38.711Z,36.70
2024-02-08T06:54:26.758Z,37.10
2024-02-08T06:57:14.536Z,35.60
2024-02-08T07:00:02.174Z,35.50
2024-02-08T07:02:49.784Z,34.40
2024-02-08T07:05:37.289Z,32.90
2024-02-08T07:08:25.764Z,31.50
2024-02-08T07:11:13.361Z,30.80
2024-02-08T07:14:01.215Z,30.20
2024-02-08T07:16:48.809Z,30.40
2024-02-08T07:19:36.671Z,30.20
2024-02-08T07:22:24.757Z,29.10
2024-02-08T07:25:12.643Z,28.30
2024-02-08T07:28:00.795Z,27.70
2024-02-08T07:30:48.749Z,28.30
2024-02-08T07:33:35.839Z,26.70
2024-02-08T07:36:24.245Z,26.40
2024-02-08T07:39:22.039Z,24.90
2024-02-08T07:41:55.515Z,23.10
2024-02-08T07:44:34.096Z,23.50
2024-02-08T07:47:13.670Z,23.60
2024-02-08T07:49:45.513Z,22.90
2024-02-08T07:52:20.371Z,24.10
2024-02-08T07:54:57.740Z,23.40
2024-02-08T07:57:32.679Z,22.20
2024-02-08T08:00:03.007Z,22.20
2024-02-08T08:02:36.237Z,22.90
2024-02-08T08:05:16.112Z,21.00
2024-02-08T08:07:46.609Z,20.10
2024-02-08T08:10:26.883Z,19.50
2024-02-08T08:12:57.236Z,58.40
2024-02-08T08:15:27.654Z,43.50
2024-02-08T08:18:02.373Z,52.10
2024-02-08T08:20:58.326Z,57.60
2024-02-08T08:23:28.756Z,50.60
2024-02-08T08:26:21.917Z,48.00
2024-02-08T08:29:03.470Z,43.40
2024-02-08T08:31:40.121Z,39.10
2024-02-08T08:34:28.175Z,37.50
2024-02-08T08:37:03.928Z,35.70
2024-02-08T08:40:11.367Z,33.00
2024-02-08T08:42:46.806Z,34.00
2024-02-08T08:45:18.142Z,33.80
2024-02-08T08:47:52.393Z,34.20
2024-02-08T08:50:31.913Z,33.40
2024-02-08T08:53:08.579Z,32.60
2024-02-08T08:55:40.852Z,31.50
2024-02-08T08:58:13.636Z,31.90
2024-02-08T09:00:47.988Z,30.60
2024-02-08T09:03:27.938Z,30.20
2024-02-08T09:05:58.708Z,29.60
2024-02-08T09:08:42.915Z,29.20
2024-02-08T09:11:14.730Z,29.10
2024-02-08T09:13:46.059Z,27.20
2024-02-08T09:16:36.874Z,26.70
2024-02-08T09:19:08.186Z,26.10
2024-02-08T09:21:40.124Z,26.20
2024-02-08T09:24:19.040Z,41.20
2024-02-08T09:29:29.952Z,50.30
2024-02-08T09:32:16.960Z,49.90
2024-02-08T09:34:54.205Z,45.20
2024-02-08T09:37:24.532Z,40.70
2024-02-08T09:40:00.946Z,40.20
2024-02-08T09:42:31.648Z,37.50
2024-02-08T09:45:19.184Z,37.30
2024-02-08T09:47:53.271Z,36.00
2024-02-08T09:50:32.167Z,34.80
2024-02-08T09:53:08.669Z,35.00
2024-02-08T09:55:39.863Z,35.30
2024-02-08T09:58:11.823Z,34.30
2024-02-08T10:00:55.946Z,33.80
2024-02-08T10:03:34.018Z,33.80
2024-02-08T10:06:14.518Z,33.50
2024-02-08T10:08:55.323Z,30.10
2024-02-08T10:11:25.849Z,30.10
2024-02-08T10:14:03.279Z,29.60
2024-02-08T10:16:44.379Z,29.10
2024-02-08T10:19:29.724Z,28.40
2024-02-08T10:22:02.048Z,28.30
2024-02-08T10:25:06.582Z,27.90
2024-02-08T10:27:37.296Z,27.10
2024-02-08T10:30:09.321Z,27.50
2024-02-08T10:32:39.584Z,25.70
2024-02-08T10:35:21.106Z,26.00
2024-02-08T10:37:55.105Z,26.00
2024-02-08T10:40:33.398Z,25.80
2024-02-08T10:43:17.782Z,24.30
2024-02-08T10:45:54.216Z,23.60
2024-02-08T10:48:25.245Z,23.50
2024-02-08T10:51:00.764Z,23.30
2024-02-08T10:53:49.520Z,22.70
2024-02-08T10:56:19.839Z,22.50
2024-02-08T10:59:10.755Z,22.90
2024-02-08T11:02:01.805Z,22.60
2024-02-08T11:04:39.790Z,21.00
2024-02-08T11:07:18.200Z,21.30
2024-02-08T11:09:48.927Z,21.10
2024-02-08T11:12:22.685Z,21.50
2024-02-08T11:14:57.825Z,20.10
2024-02-08T11:17:33.659Z,19.80
2024-02-08T11:20:04.964Z,18.90
2024-02-08T11:22:41.174Z,19.00
2024-02-08T11:25:22.268Z,20.00
2024-02-08T11:27:53.180Z,18.30
2024-02-08T11:30:35.078Z,18.80
2024-02-08T11:33:07.005Z,18.50
2024-02-08T11:35:37.840Z,17.90
2024-02-08T11:38:18.729Z,18.60
2024-02-08T11:40:49.790Z,17.80
2024-02-08T11:43:26.115Z,16.90
2024-02-08T11:45:57.524Z,15.60
2024-02-08T11:48:28.942Z,16.10
2024-02-08T11:51:00.684Z,16.30
2024-02-08T11:53:34.272Z,16.00
2024-02-08T11:56:09.782Z,15.30
2024-02-08T11:58:42.308Z,16.00
2024-02-08T12:01:14.554Z,15.00
2024-02-08T12:03:45.436Z,15.20
2024-02-08T12:06:27.102Z,15.50
2024-02-08T12:08:59.792Z,28.90
2024-02-08T12:11:31.509Z,30.70
2024-02-08T12:14:11.100Z,32.60
2024-02-08T12:16:58.178Z,32.70
2024-02-08T12:19:30.206Z,28.90
2024-02-08T12:22:04.913Z,27.40
2024-02-08T12:24:36.214Z,26.20
2024-02-08T12:27:12.754Z,25.50
2024-02-08T12:29:46.981Z,23.60
2024-02-08T12:32:18.624Z,24.80
2024-02-08T12:34:50.199Z,22.60
2024-02-08T12:37:23.797Z,23.20
2024-02-08T12:39:55.145Z,22.00
2024-02-08T12:42:25.517Z,22.30
2024-02-08T12:44:57.685Z,20.70
2024-02-08T12:47:28.046Z,20.50
2024-02-08T12:52:31.803Z,21.80
2024-02-08T12:55:02.357Z,21.00
2024-02-08T12:57:32.686Z,20.50
2024-02-08T13:00:09.041Z,21.10
2024-02-08T13:02:40.754Z,21.50
2024-02-08T13:05:11.453Z,20.30
2024-02-08T13:07:42.570Z,18.70
2024-02-08T13:10:17.405Z,18.80
2024-02-08T13:12:48.557Z,18.70
2024-02-08T13:15:23.900Z,18.90
2024-02-08T13:17:57.674Z,19.80
2024-02-08T13:20:28.590Z,40.20
2024-02-08T13:22:58.968Z,40.20
2024-02-08T13:25:30.151Z,40.90
2024-02-08T13:28:00.518Z,39.70
2024-02-08T13:30:31.775Z,37.40
2024-02-08T13:33:06.350Z,35.10
2024-02-08T13:35:40.942Z,31.60
2024-02-08T13:38:12.257Z,32.60
2024-02-08T13:40:45.695Z,31.30
2024-02-08T13:48:18.717Z,28.80
2024-02-08T13:50:49.006Z,29.40
2024-02-08T13:53:19.267Z,28.70
2024-02-08T13:55:55.382Z,28.90
2024-02-08T13:58:27.483Z,26.30
2024-02-08T14:00:59.347Z,26.90
2024-02-08T14:03:31.711Z,26.80
2024-02-08T14:06:03.098Z,27.00
2024-02-08T14:08:33.537Z,24.60
2024-02-08T14:11:10.288Z,25.70
2024-02-08T14:13:40.718Z,25.10
2024-02-08T14:16:16.214Z,24.80
2024-02-08T14:18:55.868Z,24.70
2024-02-08T14:21:28.745Z,24.00
2024-02-08T14:24:03.383Z,24.20
2024-02-08T14:26:38.855Z,22.90
2024-02-08T14:29:10.123Z,23.00
2024-02-08T14:31:42.596Z,22.60
2024-02-08T14:34:13.508Z,22.90
2024-02-08T14:36:49.636Z,21.20
2024-02-08T14:39:33.783Z,21.80
2024-02-08T14:42:11.885Z,20.80
2024-02-08T14:44:46.128Z,20.30
2024-02-08T14:47:22.768Z,20.90
2024-02-08T14:50:02.121Z,19.20
2024-02-08T14:52:37.966Z,19.80
2024-02-08T14:55:21.106Z,19.40
2024-02-08T14:57:53.989Z,18.50
2024-02-08T15:00:39.191Z,18.30
2024-02-08T15:03:10.710Z,17.20
2024-02-08T15:05:49.973Z,19.20
2024-02-08T15:08:46.910Z,33.80
2024-02-08T15:11:33.647Z,43.70
2024-02-08T15:14:03.954Z,47.50
2024-02-08T15:16:34.302Z,48.30
2024-02-08T15:19:04.688Z,46.00
2024-02-08T15:21:37.918Z,44.20
2024-02-08T15:24:21.008Z,42.10
2024-02-08T15:27:06.537Z,43.60
2024-02-08T15:29:43.926Z,40.00
2024-02-08T15:32:19.694Z,40.90
2024-02-08T15:35:07.426Z,39.80
2024-02-08T15:37:44.349Z,37.70
2024-02-08T15:40:17.783Z,37.00
2024-02-08T15:42:49.793Z,35.40
2024-02-08T15:45:22.571Z,34.70
2024-02-08T15:48:04.841Z,34.90
2024-02-08T15:50:37.953Z,33.50
2024-02-08T15:53:17.531Z,34.00
2024-02-08T15:55:50.615Z,31.60
2024-02-08T15:58:26.637Z,31.80
2024-02-08T16:01:14.548Z,30.40
2024-02-08T16:03:56.120Z,27.90
2024-02-08T16:06:54.943Z,28.20
2024-02-08T16:09:33.322Z,23.20
2024-02-08T16:12:17.285Z,23.20
2024-02-08T16:14:49.498Z,22.30
2024-02-08T16:17:38.385Z,23.00
2024-02-08T16:20:24.411Z,21.90
2024-02-08T16:22:56.343Z,21.40
2024-02-08T16:25:44.909Z,20.40
2024-02-08T16:28:23.811Z,20.10
2024-02-08T16:31:07.436Z,20.50
2024-02-08T16:33:48.347Z,19.20
2024-02-08T16:36:36.385Z,19.90
2024-02-08T16:39:29.192Z,17.70
2024-02-08T16:42:02.243Z,18.10
2024-02-08T16:44:36.510Z,18.40
2024-02-08T16:47:28.186Z,18.50
2024-02-08T16:50:00.004Z,17.10
2024-02-08T16:52:40.422Z,16.40
2024-02-08T16:55:14.835Z,16.90
2024-02-08T16:57:52.937Z,16.20
2024-02-08T17:00:43.529Z,15.40
2024-02-08T17:03:38.221Z,15.50
2024-02-08T17:06:17.721Z,14.50
2024-02-08T17:09:16.810Z,15.10
2024-02-08T17:11:50.200Z,14.20
2024-02-08T17:14:34.368Z,14.40
2024-02-08T17:17:14.297Z,13.90
2024-02-08T17:19:58.352Z,13.30
2024-02-08T17:22:52.865Z,13.10
2024-02-08T17:25:26.646Z,12.90
2024-02-08T17:28:15.874Z,13.00
2024-02-08T17:31:06.758Z,12.80
2024-02-08T17:33:41.438Z,12.10
2024-02-08T17:36:15.613Z,12.50
2024-02-08T17:38:46.174Z,11.60
2024-02-08T17:41:17.184Z,11.60
2024-02-08T17:43:56.313Z,11.00
2024-02-08T17:46:31.316Z,10.40
2024-02-08T17:49:05.683Z,10.90
2024-02-08T17:51:39.875Z,9.80
2024-02-08T17:54:11.526Z,9.80
2024-02-08T17:56:46.329Z,10.30
2024-02-08T17:59:18.174Z,10.30
2024-02-08T18:01:56.979Z,9.40
2024-02-08T18:04:29.403Z,9.40
2024-02-08T18:07:08.202Z,9.50
2024-02-08T18:09:41.801Z,8.80
2024-02-08T18:12:23.551Z,9.20
2024-02-08T18:14:57.038Z,27.80
2024-02-08T18:17:27.392Z,32.70
2024-02-08T18:20:01.158Z,33.90
2024-02-08T18:22:32.554Z,38.00
2024-02-08T18:25:07.982Z,39.20
2024-02-08T18:27:38.332Z,36.50
2024-02-08T18:30:10.901Z,35.60
2024-02-08T18:32:41.895Z,33.60
2024-02-08T18:35:12.435Z,32.90
2024-02-08T18:37:45.457Z,31.60
2024-02-08T18:40:19.636Z,30.90
2024-02-08T18:42:50.331Z,31.50
2024-02-08T18:45:25.951Z,29.20
2024-02-08T18:47:58.570Z,30.70
2024-02-08T18:50:31.516Z,29.40
2024-02-08T18:53:01.956Z,27.30
2024-02-08T18:55:40.717Z,28.10
2024-02-08T18:58:14.038Z,28.50
2024-02-08T19:00:47.622Z,26.30
2024-02-08T19:03:21.511Z,25.00
2024-02-08T19:05:52.640Z,24.30
2024-02-08T19:08:23.237Z,23.40
2024-02-08T19:10:58.977Z,22.70
2024-02-08T19:13:31.713Z,22.80
2024-02-08T19:16:08.343Z,21.70
2024-02-08T19:18:47.131Z,22.40
2024-02-08T19:21:28.289Z,22.10
2024-02-08T19:24:01.522Z,22.50
2024-02-08T19:26:32.656Z,21.30
2024-02-08T19:29:06.974Z,23.80
2024-02-08T19:31:42.584Z,39.40
2024-02-08T19:34:18.620Z,41.20
2024-02-08T19:36:52.629Z,45.70
2024-02-08T19:39:37.372Z,46.10
2024-02-08T19:42:19.083Z,38.00
2024-02-08T19:44:53.708Z,35.60
2024-02-08T19:47:28.014Z,33.50
2024-02-08T19:50:05.490Z,33.20
2024-02-08T19:52:45.311Z,32.80
2024-02-08T19:55:29.871Z,32.20
2024-02-08T19:58:00.812Z,31.10
2024-02-08T20:00:31.365Z,30.00
2024-02-08T20:03:08.606Z,29.30
2024-02-08T20:05:43.076Z,28.70
2024-02-08T20:08:13.931Z,29.10
2024-02-08T20:10:44.734Z,28.20
2024-02-08T20:13:18.797Z,26.90
2024-02-08T20:15:49.569Z,27.10
2024-02-08T20:18:20.243Z,27.60
2024-02-08T20:20:53.088Z,26.00
2024-02-08T20:23:33.051Z,25.50
2024-02-08T20:26:09.236Z,25.00
2024-02-08T20:28:44.837Z,25.60
2024-02-08T20:31:18.031Z,23.60
2024-02-08T20:33:48.543Z,24.60
2024-02-08T20:36:22.395Z,22.90
2024-02-08T20:38:54.654Z,22.40
2024-02-08T20:41:25.521Z,22.30
2024-02-08T20:43:56.630Z,22.60
2024-02-08T20:46:28.565Z,21.60
2024-02-08T20:48:59.158Z,21.30
2024-02-08T20:51:29.705Z,20.40
2024-02-08T20:54:01.668Z,20.70
2024-02-08T20:56:37.543Z,19.30
2024-02-08T20:59:08.214Z,19.40
2024-02-08T21:01:38.599Z,19.10
2024-02-08T21:04:09.233Z,18.40
2024-02-08T21:06:41.763Z,20.40
2024-02-08T21:09:13.118Z,27.80
2024-02-08T21:11:43.562Z,45.40
2024-02-08T21:14:17.179Z,50.80
2024-02-08T21:16:49.790Z,51.10
2024-02-08T21:19:21.937Z,48.50
2024-02-08T21:21:53.821Z,46.40
2024-02-08T21:24:24.569Z,43.00
2024-02-08T21:26:55.814Z,43.40
2024-02-08T21:29:28.809Z,40.30
2024-02-08T21:32:00.693Z,43.50
2024-02-08T21:34:35.681Z,38.80
2024-02-08T21:37:07.877Z,39.30
2024-02-08T21:39:41.066Z,39.10
2024-02-08T21:42:15.937Z,37.90
2024-02-08T21:44:47.288Z,38.40
2024-02-08T21:47:17.647Z,36.50
2024-02-08T21:49:48.234Z,36.90
2024-02-08T21:52:18.675Z,34.40
2024-02-08T21:54:48.929Z,34.50
2024-02-08T21:57:19.172Z,32.60
2024-02-08T21:59:49.768Z,35.80
2024-02-08T22:02:20.449Z,32.20
2024-02-08T22:04:50.956Z,34.30
2024-02-08T22:07:21.702Z,33.60
2024-02-08T22:09:54.336Z,33.00
2024-02-08T22:12:26.193Z,32.80
2024-02-08T22:14:56.499Z,33.30
2024-02-08T22:17:27.566Z,32.60
2024-02-08T22:19:57.933Z,30.70
2024-02-08T22:22:28.419Z,34.10
2024-02-08T22:25:00.215Z,32.70
2024-02-08T22:27:30.715Z,33.60
2024-02-08T22:30:01.140Z,37.00
2024-02-08T22:32:31.511Z,35.50
2024-02-08T22:35:01.920Z,38.10
2024-02-08T22:37:32.371Z,39.20
2024-02-08T22:40:07.494Z,39.40
2024-02-08T22:42:38.130Z,37.00
2024-02-08T22:45:11.136Z,38.80
2024-02-08T22:47:43.278Z,39.60
2024-02-08T22:50:14.664Z,37.20
2024-02-08T22:52:46.797Z,40.60
2024-02-08T22:55:17.894Z,36.20
2024-02-08T22:57:49.014Z,36.80
2024-02-08T23:00:31.254Z,35.50
2024-02-08T23:03:08.077Z,35.30
2024-02-08T23:05:41.529Z,32.80
2024-02-08T23:08:12.193Z,32.30
2024-02-08T23:10:43.480Z,32.70
2024-02-08T23:13:14.553Z,33.30
2024-02-08T23:15:47.638Z,34.60
2024-02-08T23:20:51.643Z,30.40
2024-02-08T23:23:22.250Z,28.10
2024-02-08T23:25:52.566Z,28.90
2024-02-08T23:28:22.875Z,28.90
2024-02-08T23:30:53.454Z,27.80
2024-02-08T23:33:24.773Z,32.90
2024-02-08T23:35:55.431Z,33.60
2024-02-08T23:38:25.750Z,28.70
2024-02-08T23:40:56.096Z,33.90
2024-02-08T23:43:26.998Z,41.10
2024-02-08T23:45:57.385Z,42.80
2024-02-08T23:48:30.220Z,41.80
2024-02-08T23:51:00.650Z,43.60
2024-02-08T23:53:32.604Z,48.00
2024-02-08T23:56:02.912Z,58.70
2024-02-08T23:58:33.259Z,62.40
